Time;durP1;ratioP1;P1;durP2;ratioP2;P2;SDS_P1;SDS_P2;PMS_P1;PMS_P2;Temp;Humidity;BMP_temperature;BMP_pressure;BME280_temperature;BME280_humidity;BME280_pressure;Samples;Min_cycle;Max_cycle;Signal;HPM_P1;HPM_P2
2022/10/20 00:01:49;;;;;;;;;7.50;5.00;;;;;29.35;100.00;101329.31;5040218;28;51130;-46
2022/10/20 00:04:33;;;;;;;;;6.75;4.50;;;;;29.36;100.00;101327.44;5036123;28;51148;-49
2022/10/20 00:07:18;;;;;;;;;5.75;4.00;;;;;29.33;100.00;101317.59;5036958;28;51135;-53
2022/10/20 00:10:03;;;;;;;;;6.00;4.00;;;;;29.34;100.00;101312.97;5039743;28;51169;-53
2022/10/20 00:12:48;;;;;;;;;4.25;4.00;;;;;29.32;100.00;101315.78;5038424;28;51090;-50
2022/10/20 00:15:32;;;;;;;;;4.25;4.25;;;;;29.33;100.00;101320.31;5040701;28;51190;-49
2022/10/20 00:18:17;;;;;;;;;4.75;3.50;;;;;29.33;100.00;101314.84;5032449;28;51136;-52
2022/10/20 00:21:14;;;;;;;;;5.25;5.25;;;;;29.31;100.00;101318.66;5037338;28;50998;-53
2022/10/20 00:24:00;;;;;;;;;4.25;4.25;;;;;29.29;100.00;101309.66;5038523;28;51616;-53
2022/10/20 00:26:44;;;;;;;;;5.25;4.00;;;;;29.26;100.00;101313.50;5040468;28;51559;-49
2022/10/20 00:29:29;;;;;;;;;5.75;3.50;;;;;29.27;100.00;101309.75;5039968;28;51244;-51
2022/10/20 00:32:14;;;;;;;;;5.00;3.00;;;;;29.25;100.00;101297.16;5031585;28;51082;-52
2022/10/20 00:34:59;;;;;;;;;4.50;3.25;;;;;29.26;100.00;101304.41;5037592;28;51502;-49
2022/10/20 00:37:44;;;;;;;;;5.75;4.00;;;;;29.23;100.00;101300.91;5037493;28;51087;-48
2022/10/20 00:40:28;;;;;;;;;6.00;4.00;;;;;29.24;100.00;101299.06;5039982;28;51141;-48
2022/10/20 00:43:13;;;;;;;;;7.00;4.50;;;;;29.21;100.00;101280.94;5037776;28;51087;-48
2022/10/20 00:45:58;;;;;;;;;5.25;2.75;;;;;29.20;100.00;101276.50;5039526;28;51011;-50
2022/10/20 00:48:52;;;;;;;;;5.25;3.25;;;;;29.14;100.00;101257.75;5034874;28;51384;-49
2022/10/20 00:51:37;;;;;;;;;6.75;5.00;;;;;29.16;100.00;101258.50;5036698;28;51403;-48
2022/10/20 00:54:25;;;;;;;;;3.25;2.50;;;;;29.15;100.00;101251.28;5037356;28;51136;-51
2022/10/20 00:57:09;;;;;;;;;4.00;4.00;;;;;29.15;100.00;101255.91;5037425;28;51213;-49
2022/10/20 00:59:54;;;;;;;;;6.00;4.25;;;;;29.16;100.00;101246.66;5038448;28;51519;-51
2022/10/20 01:02:38;;;;;;;;;4.00;4.00;;;;;29.12;100.00;101234.19;5037484;28;51133;-54
2022/10/20 01:05:23;;;;;;;;;6.25;3.25;;;;;29.16;100.00;101239.31;5040248;28;51127;-52
2022/10/20 01:08:07;;;;;;;;;6.25;3.00;;;;;29.14;100.00;101229.47;5034549;28;51158;-54
2022/10/20 01:11:40;;;;;;;;;7.50;4.75;;;;;29.13;100.00;101225.84;5038279;28;52272;-49
2022/10/20 01:15:01;;;;;;;;;7.50;4.00;;;;;29.13;100.00;101222.25;5024428;28;51589;-49
2022/10/20 01:17:48;;;;;;;;;7.00;3.25;;;;;29.12;100.00;101218.63;5038534;28;51532;-49
2022/10/20 01:20:54;;;;;;;;;5.25;5.25;;;;;29.12;100.00;101213.13;5037686;28;51155;-52
2022/10/20 01:23:57;;;;;;;;;5.00;4.00;;;;;29.13;100.00;101206.66;5033066;28;51141;-52
2022/10/20 01:26:42;;;;;;;;;7.25;4.50;;;;;29.12;100.00;101202.19;5036970;28;51233;-50
2022/10/20 01:29:35;;;;;;;;;9.75;3.50;;;;;29.05;100.00;101190.78;5039199;28;51078;-52
2022/10/20 01:32:32;;;;;;;;;4.50;3.75;;;;;29.07;100.00;101185.22;5034855;28;51438;-48
2022/10/20 01:35:51;;;;;;;;;6.00;4.00;;;;;29.07;100.00;101185.22;5038299;28;51136;-48
2022/10/20 01:38:52;;;;;;;;;7.00;4.00;;;;;29.06;100.00;101180.72;5034315;28;52441;-50
2022/10/20 01:41:38;;;;;;;;;6.75;5.00;;;;;29.04;100.00;101172.63;5034518;28;51171;-53
2022/10/20 01:44:25;;;;;;;;;5.25;5.00;;;;;29.05;100.00;101178.97;5036168;28;51374;-53
2022/10/20 01:47:11;;;;;;;;;6.75;4.50;;;;;29.02;100.00;101170.97;5033997;28;51111;-50
2022/10/20 01:49:56;;;;;;;;;5.00;3.50;;;;;28.99;100.00;101163.03;5037056;28;51222;-51
2022/10/20 01:52:41;;;;;;;;;8.00;4.25;;;;;29.00;100.00;101167.47;5038542;28;51103;-54
2022/10/20 01:55:26;;;;;;;;;4.00;4.00;;;;;29.00;100.00;101162.88;5033721;28;51216;-53
2022/10/20 01:58:22;;;;;;;;;3.25;3.25;;;;;29.02;100.00;101162.75;5036825;28;51451;-50
2022/10/20 02:01:32;;;;;;;;;5.25;3.50;;;;;29.02;100.00;101149.06;5038100;28;51225;-49
2022/10/20 02:04:23;;;;;;;;;13.25;8.25;;;;;29.01;100.00;101144.56;5038356;28;51158;-54
2022/10/20 02:07:17;;;;;;;;;5.00;4.00;;;;;28.97;100.00;101135.72;5035674;28;51335;-51
2022/10/20 02:10:13;;;;;;;;;4.00;4.00;;;;;29.00;100.00;101143.72;5036588;28;51890;-53
2022/10/20 02:13:02;;;;;;;;;4.50;3.00;;;;;29.00;100.00;101134.59;5038052;28;51094;-51
2022/10/20 02:15:55;;;;;;;;;7.00;3.75;;;;;29.01;100.00;101136.34;5033072;28;51027;-53
2022/10/20 02:18:41;;;;;;;;;6.50;3.00;;;;;29.00;100.00;101131.88;5033422;28;51943;-52
2022/10/20 02:21:26;;;;;;;;;3.00;3.00;;;;;28.98;100.00;101134.72;5032345;28;51272;-50
2022/10/20 02:24:13;;;;;;;;;4.25;4.00;;;;;29.03;100.00;101143.50;5036310;28;51461;-49
2022/10/20 02:27:02;;;;;;;;;5.75;4.75;;;;;29.05;100.00;101144.22;5036862;28;51098;-52
2022/10/20 02:29:54;;;;;;;;;8.25;5.25;;;;;29.05;100.00;101136.00;5037734;28;51537;-54
2022/10/20 02:32:40;;;;;;;;;7.50;5.75;;;;;29.04;100.00;101147.97;5036060;28;51546;-48
2022/10/20 02:35:30;;;;;;;;;7.50;5.50;;;;;29.04;100.00;101133.41;5035227;28;51671;-50
2022/10/20 02:38:14;;;;;;;;;7.00;4.25;;;;;28.97;100.00;101121.16;5034165;28;51201;-51
2022/10/20 02:40:59;;;;;;;;;8.25;4.75;;;;;28.95;100.00;101126.75;5037779;28;51174;-49
2022/10/20 02:43:44;;;;;;;;;5.50;4.50;;;;;28.94;100.00;101129.59;5032665;28;51299;-49
2022/10/20 02:46:29;;;;;;;;;6.50;5.25;;;;;28.92;100.00;101127.00;5038558;28;51169;-54
2022/10/20 02:49:13;;;;;;;;;5.50;5.00;;;;;28.96;100.00;101135.84;5041303;28;51190;-51
2022/10/20 02:51:58;;;;;;;;;3.25;3.25;;;;;28.97;100.00;101134.84;5042120;28;51239;-47
2022/10/20 02:54:42;;;;;;;;;7.25;5.00;;;;;28.99;100.00;101143.84;5043176;28;51204;-49
2022/10/20 02:57:27;;;;;;;;;8.25;5.00;;;;;29.00;100.00;101151.94;5036835;28;52100;-50
2022/10/20 03:00:12;;;;;;;;;7.00;4.00;;;;;29.02;100.00;101149.06;5039338;28;51091;-50
2022/10/20 03:02:57;;;;;;;;;5.25;5.00;;;;;29.02;100.00;101146.31;5040794;28;51256;-55
2022/10/20 03:05:43;;;;;;;;;13.50;6.25;;;;;29.05;100.00;101154.31;5039721;28;51041;-51
2022/10/20 03:08:27;;;;;;;;;8.00;5.75;;;;;29.03;100.00;101151.72;5039975;28;51486;-49
2022/10/20 03:11:12;;;;;;;;;7.75;4.75;;;;;29.04;100.00;101144.34;5040563;28;51168;-52
2022/10/20 03:13:56;;;;;;;;;6.50;4.25;;;;;29.05;100.00;101146.09;5042784;28;51423;-51
2022/10/20 03:16:41;;;;;;;;;6.75;3.00;;;;;29.03;100.00;101154.44;5040370;28;52538;-54
2022/10/20 03:19:26;;;;;;;;;5.00;4.75;;;;;29.02;100.00;101151.81;5041177;28;51174;-49
2022/10/20 03:22:10;;;;;;;;;5.25;5.00;;;;;28.99;100.00;101157.53;5039201;28;51062;-55
2022/10/20 03:24:55;;;;;;;;;4.00;4.00;;;;;28.97;100.00;101149.41;5038586;28;51386;-50
2022/10/20 03:27:39;;;;;;;;;8.25;5.00;;;;;28.96;100.00;101153.16;5036463;28;51185;-53
2022/10/20 03:30:24;;;;;;;;;4.25;4.00;;;;;28.94;100.00;101157.88;5041970;28;50959;-48
2022/10/20 03:33:08;;;;;;;;;6.00;6.00;;;;;28.86;100.00;101136.53;5039280;28;51456;-53
2022/10/20 03:35:53;;;;;;;;;8.00;5.25;;;;;28.85;100.00;101158.53;5041113;28;51120;-49
2022/10/20 03:38:42;;;;;;;;;8.00;3.50;;;;;28.87;100.00;101162.94;5042020;28;51050;-48
2022/10/20 03:41:27;;;;;;;;;5.75;4.25;;;;;28.82;100.00;101159.66;5040806;28;51177;-47
2022/10/20 03:44:11;;;;;;;;;9.00;4.75;;;;;28.86;100.00;101176.72;5042215;28;51074;-52
2022/10/20 03:46:56;;;;;;;;;14.50;5.50;;;;;28.84;100.00;101171.38;5040492;28;51141;-51
2022/10/20 03:49:40;;;;;;;;;6.75;5.00;;;;;28.86;100.00;101176.72;5043944;28;51924;-51
2022/10/20 03:52:25;;;;;;;;;7.25;5.25;;;;;28.83;100.00;101166.03;5040484;28;51122;-49
2022/10/20 03:55:10;;;;;;;;;8.00;6.75;;;;;28.87;100.00;101171.16;5040664;28;51107;-50
2022/10/20 03:57:54;;;;;;;;;5.25;5.25;;;;;28.87;100.00;101165.69;5039806;28;51110;-53
2022/10/20 04:00:38;;;;;;;;;5.50;5.50;;;;;28.89;100.00;101166.41;5033141;28;51116;-46
2022/10/20 04:03:23;;;;;;;;;10.50;7.00;;;;;28.86;100.00;101157.56;5034746;28;51528;-50
2022/10/20 04:06:07;;;;;;;;;8.00;5.50;;;;;28.83;100.00;101157.81;5039439;28;51214;-54
2022/10/20 04:08:52;;;;;;;;;6.25;6.25;;;;;28.81;100.00;101159.78;5038105;28;51017;-50
2022/10/20 04:11:36;;;;;;;;;8.50;7.00;;;;;28.80;100.00;101164.38;5033484;28;51103;-49
2022/10/20 04:14:21;;;;;;;;;6.50;4.75;;;;;28.79;100.00;101170.84;5039050;28;51092;-49
2022/10/20 04:17:06;;;;;;;;;13.25;8.00;;;;;28.79;100.00;101181.78;5040263;28;51184;-50
2022/10/20 04:19:50;;;;;;;;;14.00;6.25;;;;;28.76;100.00;101177.41;5040312;28;51007;-49
2022/10/20 04:22:35;;;;;;;;;5.75;4.25;;;;;28.77;100.00;101178.31;5033775;28;51523;-47
2022/10/20 04:25:20;;;;;;;;;7.50;5.00;;;;;28.79;100.00;101183.66;5039636;28;51093;-51
2022/10/20 04:28:04;;;;;;;;;8.00;5.25;;;;;28.81;100.00;101198.13;5040120;28;51093;-52
2022/10/20 04:30:48;;;;;;;;;5.50;5.50;;;;;28.82;100.00;101197.13;5034608;28;51264;-51
2022/10/20 04:33:33;;;;;;;;;5.75;5.75;;;;;28.84;100.00;101196.03;5040184;28;51135;-51
2022/10/20 04:36:17;;;;;;;;;7.25;6.50;;;;;28.84;100.00;101197.88;5038942;28;51177;-50
2022/10/20 04:39:05;;;;;;;;;6.25;5.00;;;;;28.85;100.00;101200.53;5039117;28;51451;-47
2022/10/20 04:41:50;;;;;;;;;6.00;5.50;;;;;28.87;100.00;101209.50;5037959;28;51147;-49
2022/10/20 04:44:35;;;;;;;;;11.50;6.50;;;;;28.90;100.00;101203.78;5038591;28;51076;-53
2022/10/20 04:47:19;;;;;;;;;8.75;5.75;;;;;28.87;100.00;101212.25;5039807;28;51433;-50
2022/10/20 04:50:04;;;;;;;;;6.25;5.25;;;;;28.85;100.00;101208.75;5039836;28;51185;-47
2022/10/20 04:52:50;;;;;;;;;10.25;5.25;;;;;28.94;100.00;101220.00;5038809;28;51536;-49
2022/10/20 04:55:35;;;;;;;;;8.00;5.50;;;;;28.94;100.00;101226.38;5034899;28;51594;-53
2022/10/20 04:58:19;;;;;;;;;7.50;7.00;;;;;28.93;100.00;101213.66;5039462;28;51149;-50
2022/10/20 05:01:07;;;;;;;;;11.50;11.00;;;;;28.92;100.00;101222.84;5038145;28;51519;-53
2022/10/20 05:03:51;;;;;;;;;21.25;18.50;;;;;28.94;100.00;101230.94;5035203;28;51489;-53
2022/10/20 05:06:36;;;;;;;;;8.25;7.75;;;;;28.96;100.00;101237.19;5039481;28;51184;-51
2022/10/20 05:09:20;;;;;;;;;10.00;9.75;;;;;28.96;100.00;101234.47;5038104;28;51133;-48
2022/10/20 05:12:05;;;;;;;;;11.00;11.00;;;;;28.96;100.00;101242.69;5036519;28;51338;-53
2022/10/20 05:14:49;;;;;;;;;15.00;10.75;;;;;28.95;100.00;101239.03;5040102;28;51558;-54
2022/10/20 05:17:34;;;;;;;;;8.75;7.00;;;;;28.92;100.00;101240.16;5038419;28;51121;-53
2022/10/20 05:20:19;;;;;;;;;6.00;6.00;;;;;28.90;100.00;101242.13;5036866;28;51207;-54
2022/10/20 05:23:03;;;;;;;;;11.25;10.00;;;;;28.84;100.00;101225.25;5034955;28;51256;-54
2022/10/20 05:25:47;;;;;;;;;10.25;7.75;;;;;28.88;100.00;101238.66;5031022;28;51222;-49
2022/10/20 05:28:32;;;;;;;;;10.25;8.00;;;;;28.90;100.00;101241.25;5038318;28;51404;-53
2022/10/20 05:31:20;;;;;;;;;6.00;6.00;;;;;28.89;100.00;101240.38;5028816;28;51143;-49
2022/10/20 05:34:05;;;;;;;;;9.25;8.00;;;;;28.90;100.00;101233.03;5034116;28;50956;-52
2022/10/20 05:36:52;;;;;;;;;10.25;9.00;;;;;28.91;100.00;101234.78;5038827;28;51161;-49
2022/10/20 05:39:37;;;;;;;;;11.25;7.75;;;;;28.86;100.00;101226.94;5033542;28;51242;-51
2022/10/20 05:42:21;;;;;;;;;12.25;9.25;;;;;28.86;100.00;101223.28;5034764;28;51746;-50
2022/10/20 05:45:07;;;;;;;;;17.75;11.00;;;;;28.94;100.00;101231.84;5037565;28;51343;-43
2022/10/20 05:47:51;;;;;;;;;16.50;9.75;;;;;29.03;100.00;101222.03;5037512;28;51097;-42
2022/10/20 05:50:37;;;;;;;;;21.75;18.00;;;;;29.11;100.00;101224.22;5037810;28;51302;-42
2022/10/20 05:53:21;;;;;;;;;12.50;9.50;;;;;29.14;100.00;101222.13;5035803;28;51581;-42
2022/10/20 05:56:08;;;;;;;;;25.25;17.00;;;;;29.21;100.00;101228.88;5033914;28;51040;-43
2022/10/20 05:58:53;;;;;;;;;19.00;12.00;;;;;29.23;100.00;101224.16;5038359;28;51073;-42
2022/10/20 06:01:46;;;;;;;;;21.25;18.50;;;;;29.36;100.00;101243.34;5033927;28;51536;-42
2022/10/20 06:04:31;;;;;;;;;18.25;17.00;;;;;29.42;100.00;101252.94;5037729;28;51263;-45
2022/10/20 06:07:16;;;;;;;;;17.50;15.00;;;;;29.46;100.00;101254.47;5037869;28;51530;-42
2022/10/20 06:10:01;;;;;;;;;13.50;13.00;;;;;29.50;100.00;101256.00;5037544;28;51591;-42
2022/10/20 06:12:45;;;;;;;;;18.25;16.50;;;;;29.50;100.00;101264.22;5037485;28;51451;-43
2022/10/20 06:15:32;;;;;;;;;21.75;15.00;;;;;29.55;100.00;101276.69;5037570;28;51111;-43
2022/10/20 06:18:16;;;;;;;;;19.50;16.50;;;;;29.59;100.00;101276.34;5036909;28;51563;-43
2022/10/20 06:21:13;;;;;;;;;16.75;16.25;;;;;29.62;100.00;101286.22;5038804;28;51110;-42
2022/10/20 06:23:59;;;;;;;;;27.25;20.25;;;;;29.62;100.00;101269.78;5041312;28;51115;-43
2022/10/20 06:26:44;;;;;;;;;16.75;14.00;;;;;29.71;100.00;101280.03;5040823;28;51457;-44
2022/10/20 06:29:29;;;;;;;;;14.00;13.25;;;;;29.68;100.00;101275.63;5039584;28;51062;-43
2022/10/20 06:32:16;;;;;;;;;20.50;17.75;;;;;29.72;100.00;101287.28;5038676;28;51496;-42
2022/10/20 06:35:01;;;;;;;;;22.50;16.00;;;;;29.79;100.00;101288.56;5042900;28;51536;-42
2022/10/20 06:37:46;;;;;;;;;27.00;20.25;;;;;29.87;100.00;101295.31;5040497;28;51373;-42
2022/10/20 06:40:30;;;;;;;;;24.75;19.25;;;;;29.93;100.00;101289.38;5041149;28;51312;-42
2022/10/20 06:43:14;;;;;;;;;27.75;19.50;;;;;30.08;100.00;101285.44;5040982;28;51547;-44
2022/10/20 06:46:01;;;;;;;;;24.50;18.50;;;;;30.29;100.00;101284.75;5042301;28;51265;-46
2022/10/20 06:48:46;;;;;;;;;25.25;18.50;;;;;30.51;100.00;101294.91;5041586;28;51248;-41
2022/10/20 06:51:31;;;;;;;;;19.25;18.00;;;;;30.70;100.00;101293.47;5040879;28;51509;-43
2022/10/20 06:54:15;;;;;;;;;24.75;21.75;;;;;30.82;100.00;101283.34;5040760;28;51201;-42
2022/10/20 06:57:00;;;;;;;;;28.25;19.75;;;;;30.82;100.00;101286.09;5042481;28;52207;-45
2022/10/20 06:59:46;;;;;;;;;30.75;23.75;;;;;30.94;100.00;101300.72;5040415;28;51130;-42
2022/10/20 07:02:31;;;;;;;;;25.50;19.00;;;;;31.02;100.00;101301.81;5039846;28;51091;-44
2022/10/20 07:05:16;;;;;;;;;21.75;18.25;;;;;31.05;100.00;101308.97;5042026;28;51653;-42
2022/10/20 07:08:01;;;;;;;;;27.25;20.50;;;;;31.21;100.00;101308.63;5040272;28;51146;-42
2022/10/20 07:10:45;;;;;;;;;25.00;20.50;;;;;31.44;100.00;101305.81;5040672;28;51343;-43
2022/10/20 07:13:30;;;;;;;;;25.50;20.75;;;;;31.69;100.00;101315.66;5042477;28;51141;-42
2022/10/20 07:16:18;;;;;;;;;22.50;20.25;;;;;32.60;100.00;101326.25;5040961;28;51106;-44
2022/10/20 07:19:03;;;;;;;;;23.00;22.00;;;;;33.99;100.00;101321.09;5040193;28;51205;-42
2022/10/20 07:21:48;;;;;;;;;21.00;17.75;;;;;34.50;100.00;101321.81;5039699;28;51534;-44
2022/10/20 07:24:33;;;;;;;;;26.50;21.50;;;;;34.24;100.00;101316.00;5035835;28;51099;-42
2022/10/20 07:27:18;;;;;;;;;24.25;21.50;;;;;33.93;100.00;101327.19;5037345;28;51264;-43
2022/10/20 07:30:03;;;;;;;;;23.00;21.25;;;;;33.60;100.00;101334.81;5038997;28;51298;-42
2022/10/20 07:32:47;;;;;;;;;29.25;24.50;;;;;33.36;100.00;101336.06;5038205;28;51264;-43
2022/10/20 07:35:32;;;;;;;;;25.50;23.00;;;;;33.17;100.00;101342.38;5041503;28;51161;-43
2022/10/20 07:38:17;;;;;;;;;25.50;21.25;;;;;32.99;100.00;101353.19;5039757;28;52413;-43
2022/10/20 07:41:02;;;;;;;;;25.50;21.75;;;;;32.88;100.00;101363.28;5036710;28;51548;-44
2022/10/20 07:43:47;;;;;;;;;26.25;21.00;;;;;32.73;100.00;101367.34;5034822;28;51916;-42
2022/10/20 07:46:31;;;;;;;;;26.50;23.50;;;;;32.64;100.00;101380.09;5040509;28;51225;-43
2022/10/20 07:49:16;;;;;;;;;22.25;20.25;;;;;32.49;100.00;101381.41;5027219;28;51189;-44
2022/10/20 07:52:01;;;;;;;;;27.75;23.50;;;;;32.37;100.00;101384.22;5036768;28;51430;-43
2022/10/20 07:54:46;;;;;;;;;24.25;22.00;;;;;32.32;100.00;101386.50;5034257;28;51219;-40
2022/10/20 07:57:31;;;;;;;;;21.50;17.25;;;;;32.18;100.00;101390.41;5037844;28;51133;-43
2022/10/20 08:00:15;;;;;;;;;20.25;13.00;;;;;32.05;100.00;101392.47;5034722;28;51477;-44
2022/10/20 08:03:00;;;;;;;;;17.00;12.25;;;;;32.00;100.00;101392.88;5040286;28;51130;-41
2022/10/20 08:05:44;;;;;;;;;11.25;8.75;;;;;31.90;100.00;101392.75;5040100;28;51467;-41
2022/10/20 08:08:29;;;;;;;;;20.50;14.00;;;;;31.92;100.00;101403.63;5040052;28;51197;-43
2022/10/20 08:11:13;;;;;;;;;13.50;12.75;;;;;32.02;100.00;101406.47;5040652;28;51082;-43
2022/10/20 08:13:58;;;;;;;;;18.50;13.50;;;;;32.09;100.00;101415.97;5041404;28;51169;-42
2022/10/20 08:16:42;;;;;;;;;12.25;11.25;;;;;32.09;100.00;101410.44;5040227;28;51138;-43
2022/10/20 08:19:27;;;;;;;;;12.25;9.75;;;;;32.19;100.00;101419.69;5038854;28;51244;-41
2022/10/20 08:22:12;;;;;;;;;19.50;13.00;;;;;32.30;100.00;101419.66;5042066;28;51431;-42
2022/10/20 08:24:57;;;;;;;;;11.00;10.00;;;;;32.41;100.00;101420.63;5036037;28;51472;-41
2022/10/20 08:27:42;;;;;;;;;20.25;17.50;;;;;32.57;100.00;101426.56;5039799;28;51184;-43
2022/10/20 08:30:26;;;;;;;;;14.75;14.50;;;;;32.63;100.00;101427.03;5039768;28;51498;-41
2022/10/20 08:33:11;;;;;;;;;4.00;4.00;;;;;32.81;100.00;101430.94;5038699;28;51201;-43
2022/10/20 08:35:59;;;;;;;;;13.50;11.75;;;;;33.13;100.00;101418.09;5033802;28;51307;-41
2022/10/20 08:38:44;;;;;;;;;12.25;9.50;;;;;33.56;100.00;101429.91;5040137;28;51208;-42
2022/10/20 08:41:32;;;;;;;;;11.50;9.25;;;;;34.11;100.00;101424.84;5037950;28;51094;-41
2022/10/20 08:44:25;;;;;;;;;10.00;8.50;;;;;34.77;100.00;101430.66;5038841;28;51151;-40
2022/10/20 08:47:27;;;;;;;;;11.00;9.50;;;;;35.71;100.00;101422.53;5032984;28;51352;-41
2022/10/20 08:50:15;;;;;;;;;8.75;7.25;;;;;36.53;100.00;101409.56;5032754;28;51229;-45
2022/10/20 08:53:00;;;;;;;;;10.25;8.25;;;;;37.15;100.00;101410.56;5032454;28;51126;-43
2022/10/20 08:55:46;;;;;;;;;3.00;3.00;;;;;37.79;100.00;101393.50;5038249;28;51076;-43
2022/10/20 08:58:30;;;;;;;;;9.75;8.50;;;;;38.29;100.00;101402.81;5032278;28;51153;-42
2022/10/20 09:01:27;;;;;;;;;9.75;7.00;;;;;38.55;100.00;101404.56;5030852;28;51146;-43
2022/10/20 09:04:17;;;;;;;;;10.00;10.00;;;;;38.59;100.00;101395.69;5038743;28;51145;-42
2022/10/20 09:07:08;;;;;;;;;16.50;11.00;;;;;38.49;100.00;101386.66;5062849;27;51482;-45
2022/10/20 09:10:15;;;;;;;;;9.50;6.75;;;;;38.36;100.00;101387.19;5037439;28;51115;-41
2022/10/20 09:13:00;;;;;;;;;10.50;7.00;;;;;38.23;100.00;101384.91;5044408;28;51290;-44
2022/10/20 09:15:47;;;;;;;;;10.25;6.75;;;;;38.28;100.00;101384.41;5029458;28;51350;-42
2022/10/20 09:18:33;;;;;;;;;10.00;7.25;;;;;38.22;100.00;101387.84;5038017;28;51117;-42
2022/10/20 09:21:20;;;;;;;;;9.75;8.00;;;;;38.18;100.00;101386.47;5038244;28;51468;-42
2022/10/20 09:24:06;;;;;;;;;11.75;11.00;;;;;38.01;100.00;101386.44;5039587;28;51090;-43
2022/10/20 09:26:51;;;;;;;;;10.75;9.00;;;;;37.93;100.00;101380.88;5033452;28;51226;-41
2022/10/20 09:29:37;;;;;;;;;11.00;9.25;;;;;37.79;100.00;101374.91;5036047;28;51429;-43
2022/10/20 09:32:33;;;;;;;;;7.75;6.50;;;;;37.72;100.00;101389.66;5039446;28;51100;-44
2022/10/20 09:35:25;;;;;;;;;9.50;8.25;;;;;37.50;100.00;101376.22;5039419;28;51146;-43
2022/10/20 09:38:10;;;;;;;;;13.75;9.75;;;;;37.34;100.00;101381.69;5039810;28;51366;-43
2022/10/20 09:41:00;;;;;;;;;11.00;8.25;;;;;37.30;100.00;101371.94;5038841;28;51134;-43
2022/10/20 09:43:55;;;;;;;;;10.75;10.00;;;;;37.26;100.00;101376.97;5032484;28;51135;-41
2022/10/20 09:46:46;;;;;;;;;9.25;9.25;;;;;37.32;100.00;101379.06;5036144;28;51444;-42
2022/10/20 09:49:35;;;;;;;;;7.00;6.00;;;;;37.41;100.00;101368.91;5030314;28;51210;-43
2022/10/20 09:52:29;;;;;;;;;10.25;7.25;;;;;37.49;100.00;101376.41;5034646;28;51107;-41
2022/10/20 09:55:33;;;;;;;;;10.75;6.75;;;;;37.49;100.00;101374.47;5029036;28;51186;-43
2022/10/20 09:58:32;;;;;;;;;7.75;7.75;;;;;37.43;100.00;101369.63;5039052;28;51370;-44
2022/10/20 10:01:17;;;;;;;;;14.50;12.00;;;;;37.57;100.00;101372.78;5025910;28;51499;-42
2022/10/20 10:04:02;;;;;;;;;7.00;6.75;;;;;37.52;100.00;101373.28;5041398;28;51283;-44
2022/10/20 10:06:47;;;;;;;;;5.25;5.25;;;;;37.60;100.00;101353.00;5038065;28;51149;-41
2022/10/20 10:09:34;;;;;;;;;12.50;8.00;;;;;37.76;100.00;101358.63;5036598;28;51216;-41
2022/10/20 10:12:19;;;;;;;;;11.75;7.75;;;;;37.88;100.00;101355.53;5036700;28;51204;-43
2022/10/20 10:15:25;;;;;;;;;11.25;9.75;;;;;37.76;100.00;101354.94;5037136;28;53529;-43
2022/10/20 10:18:21;;;;;;;;;7.50;7.25;;;;;37.83;100.00;101354.09;5036144;28;51183;-42
2022/10/20 10:21:08;;;;;;;;;11.50;9.25;;;;;37.78;100.00;101363.97;5039134;28;51230;-46
2022/10/20 10:23:58;;;;;;;;;11.75;9.50;;;;;37.76;100.00;101358.63;5033060;28;51355;-43
2022/10/20 10:26:54;;;;;;;;;12.75;8.25;;;;;37.85;100.00;101356.69;5035147;28;51089;-44
2022/10/20 10:29:38;;;;;;;;;14.75;9.75;;;;;38.09;100.00;101344.81;5038781;28;51249;-42
2022/10/20 10:32:28;;;;;;;;;9.00;8.75;;;;;38.30;100.00;101335.06;5030107;28;51095;-44
2022/10/20 10:35:37;;;;;;;;;12.00;9.00;;;;;38.43;100.00;101321.53;5035035;28;50999;-43
2022/10/20 10:38:21;;;;;;;;;11.25;8.50;;;;;38.49;100.00;101324.66;5035145;28;51162;-44
2022/10/20 10:41:33;;;;;;;;;12.00;9.00;;;;;38.49;100.00;101317.16;5038706;28;51619;-42
2022/10/20 10:44:37;;;;;;;;;13.00;7.75;;;;;38.42;100.00;101313.38;5038559;28;51215;-42
2022/10/20 10:47:43;;;;;;;;;8.75;7.75;;;;;38.31;100.00;101309.00;5036470;28;51181;-42
2022/10/20 10:50:33;;;;;;;;;14.00;9.75;;;;;38.21;100.00;101309.19;5037515;28;51230;-42
2022/10/20 10:57:32;;;;;;;;;12.75;10.50;;;;;37.68;100.00;101297.50;5033064;28;51269;-42
2022/10/20 11:00:47;;;;;;;;;13.50;11.50;;;;;37.57;100.00;101295.91;5037248;28;51090;-43
2022/10/20 11:04:02;;;;;;;;;13.50;11.00;;;;;37.40;100.00;101292.25;5037946;28;51048;-43
2022/10/20 11:06:52;;;;;;;;;14.00;10.75;;;;;37.21;100.00;101294.25;5033498;28;51471;-42
2022/10/20 11:09:59;;;;;;;;;18.50;12.75;;;;;37.03;100.00;101280.47;5036633;28;51326;-44
2022/10/20 11:13:08;;;;;;;;;11.00;10.00;;;;;36.85;100.00;101290.75;5041048;28;51170;-44
2022/10/20 11:16:32;;;;;;;;;15.25;11.75;;;;;36.62;100.00;101290.47;5036530;28;51063;-42
2022/10/20 11:20:00;;;;;;;;;15.50;12.00;;;;;36.38;100.00;101283.69;5039281;28;51183;-43
2022/10/20 11:22:54;;;;;;;;;12.00;8.50;;;;;36.19;100.00;101282.00;5007278;28;51231;-43
2022/10/20 11:25:53;;;;;;;;;15.50;13.50;;;;;36.05;100.00;101269.59;5040061;28;51190;-41
2022/10/20 11:28:43;;;;;;;;;16.75;14.25;;;;;35.97;100.00;101270.38;5041065;28;51106;-42
2022/10/20 11:31:30;;;;;;;;;17.25;14.50;;;;;35.95;100.00;101262.25;5038968;28;51200;-44
2022/10/20 11:34:43;;;;;;;;;15.75;15.75;;;;;35.91;100.00;101263.56;5041360;28;51467;-42
2022/10/20 11:37:30;;;;;;;;;19.50;17.50;;;;;35.93;100.00;101250.47;5040241;28;51507;-43
2022/10/20 11:40:22;;;;;;;;;20.75;14.50;;;;;35.91;100.00;101240.56;5036783;28;51103;-44
2022/10/20 11:43:10;;;;;;;;;17.25;12.50;;;;;35.91;100.00;101241.41;5040329;28;51542;-42
2022/10/20 11:46:00;;;;;;;;;14.50;11.00;;;;;35.89;100.00;101242.59;5039774;28;51422;-43
2022/10/20 11:48:53;;;;;;;;;19.50;13.75;;;;;35.93;100.00;101227.44;5037744;28;51095;-44
2022/10/20 11:51:58;;;;;;;;;16.25;14.25;;;;;35.96;100.00;101216.03;5038811;28;51063;-42
2022/10/20 11:55:01;;;;;;;;;17.75;14.00;;;;;36.06;100.00;101207.63;5034575;28;51371;-42
2022/10/20 11:58:14;;;;;;;;;20.50;15.75;;;;;36.26;100.00;101200.84;5041419;28;51174;-42
2022/10/20 12:01:09;;;;;;;;;16.25;14.00;;;;;36.44;100.00;101195.28;5038968;28;52339;-43
2022/10/20 12:04:14;;;;;;;;;15.00;13.00;;;;;36.44;100.00;101192.50;5037712;28;51055;-42
2022/10/20 12:07:11;;;;;;;;;14.00;12.25;;;;;36.13;100.00;101184.69;5035767;28;51149;-43
2022/10/20 12:10:21;;;;;;;;;14.25;11.50;;;;;36.03;100.00;101195.00;5039356;28;51218;-44
2022/10/20 12:13:25;;;;;;;;;19.00;13.00;;;;;35.85;100.00;101186.69;5039906;28;51342;-43
2022/10/20 12:16:09;;;;;;;;;11.75;11.75;;;;;35.72;100.00;101187.09;5038361;28;51117;-44
2022/10/20 12:19:16;;;;;;;;;10.25;10.00;;;;;35.62;100.00;101192.72;5039481;28;51128;-42
2022/10/20 12:22:13;;;;;;;;;11.00;11.00;;;;;35.52;100.00;101186.41;5036535;28;51113;-42
2022/10/20 12:24:57;;;;;;;;;15.50;10.75;;;;;35.41;100.00;101181.94;5038891;28;51570;-42
2022/10/20 12:27:42;;;;;;;;;14.00;12.00;;;;;35.34;100.00;101173.44;5040009;28;51385;-43
2022/10/20 12:30:41;;;;;;;;;12.25;10.25;;;;;35.20;100.00;101161.00;5039101;28;51449;-45
2022/10/20 12:33:49;;;;;;;;;13.75;13.50;;;;;35.15;100.00;101151.44;5037452;28;51726;-46
2022/10/20 12:36:36;;;;;;;;;12.75;10.00;;;;;35.13;100.00;101147.97;5042104;28;51034;-46
2022/10/20 12:39:23;;;;;;;;;14.25;11.00;;;;;35.05;100.00;101133.03;5037875;28;51055;-50
2022/10/20 12:42:38;;;;;;;;;12.00;10.75;;;;;34.92;100.00;101127.03;5027823;28;51541;-46
2022/10/20 12:45:37;;;;;;;;;9.75;9.75;;;;;34.74;100.00;101124.22;5034194;28;51239;-46
2022/10/20 12:48:22;;;;;;;;;15.00;13.25;;;;;34.59;100.00;101123.84;5038820;28;51692;-49
2022/10/20 12:51:18;;;;;;;;;15.00;11.25;;;;;34.55;100.00;101119.66;5039808;28;51154;-49
2022/10/20 12:54:18;;;;;;;;;16.25;12.25;;;;;34.65;100.00;101114.09;5040278;28;51414;-48